Time;durP1;ratioP1;P1;durP2;ratioP2;P2;SDS_P1;SDS_P2;PMS_P1;PMS_P2;Temp;Humidity;BMP_temperature;BMP_pressure;BME280_temperature;BME280_humidity;BME280_pressure;Samples;Min_cycle;Max_cycle;Signal;HPM_P1;HPM_P2
2022/08/17 00:01:54;;;;;;;7.00;3.47;;;;;;;20.20;42.06;101492.47;4974347;28;20394;-85
2022/08/17 00:04:21;;;;;;;5.93;3.20;;;;;;;20.04;42.56;101493.66;4975647;28;20023;-81
2022/08/17 00:06:48;;;;;;;11.05;3.85;;;;;;;20.06;42.41;101483.00;4974131;28;20482;-81
2022/08/17 00:09:14;;;;;;;7.55;3.60;;;;;;;20.02;42.67;101493.19;4975485;28;20027;-83
2022/08/17 00:11:42;;;;;;;9.25;4.43;;;;;;;19.96;43.07;101489.91;4975358;28;20038;-81
2022/08/17 00:14:15;;;;;;;9.60;3.35;;;;;;;19.94;43.09;101487.47;4974155;28;20034;-81
2022/08/17 00:16:44;;;;;;;6.35;3.05;;;;;;;19.98;43.03;101487.56;4975062;28;20030;-80
2022/08/17 00:19:13;;;;;;;6.78;3.45;;;;;;;20.14;42.82;101487.53;4990224;28;20048;-80
2022/08/17 00:21:42;;;;;;;9.80;3.95;;;;;;;19.99;43.23;101486.41;4975302;28;20042;-80
2022/08/17 00:24:08;;;;;;;8.57;3.30;;;;;;;19.84;43.58;101481.66;4973954;28;20081;-81
2022/08/17 00:26:34;;;;;;;10.60;3.83;;;;;;;20.07;43.15;101479.84;4973629;28;20031;-80
2022/08/17 00:28:59;;;;;;;8.93;3.63;;;;;;;19.90;43.68;101481.03;4973703;28;20023;-83
2022/08/17 00:31:25;;;;;;;8.18;3.42;;;;;;;20.01;43.76;101477.72;4975074;28;20417;-80
2022/08/17 00:33:51;;;;;;;9.00;3.83;;;;;;;19.89;43.78;101479.44;4974970;28;20114;-80
2022/08/17 00:36:17;;;;;;;13.35;3.58;;;;;;;19.94;43.73;101472.78;4973478;28;20114;-80
2022/08/17 00:38:43;;;;;;;8.05;3.25;;;;;;;20.01;43.50;101486.03;4973547;28;20045;-80
2022/08/17 00:41:15;;;;;;;9.27;3.42;;;;;;;20.01;43.78;101481.28;4974804;28;20031;-83
2022/08/17 00:43:45;;;;;;;10.00;4.32;;;;;;;20.04;43.63;101479.78;4973546;28;20117;-81
2022/08/17 00:46:12;;;;;;;;;;;;;;;19.87;44.19;101473.41;4975126;28;20115;-81
2022/08/17 00:48:38;;;;;;;8.60;3.25;;;;;;;19.98;43.85;101472.88;4973655;28;19922;-81
2022/08/17 00:51:14;;;;;;;9.35;3.25;;;;;;;19.82;44.45;101476.47;4974576;28;20034;-79
2022/08/17 00:53:46;;;;;;;6.65;3.60;;;;;;;19.77;44.53;101481.47;4973299;28;20077;-83
2022/08/17 00:56:17;;;;;;;9.55;3.67;;;;;;;19.77;44.81;101482.28;4974460;28;20045;-85
2022/08/17 00:58:43;;;;;;;8.40;3.67;;;;;;;20.01;43.97;101480.47;4973465;28;20039;-82
2022/08/17 01:01:11;;;;;;;11.07;3.50;;;;;;;20.10;43.85;101481.94;4973283;28;20389;-81
2022/08/17 01:03:38;;;;;;;7.75;3.40;;;;;;;20.02;44.05;101482.88;4973329;28;20027;-82
2022/08/17 01:06:06;;;;;;;6.18;2.83;;;;;;;19.96;44.17;101484.34;4973183;28;20094;-86
2022/08/17 01:08:33;;;;;;;12.98;3.80;;;;;;;19.84;44.60;101482.47;4989585;28;20393;-85
2022/08/17 01:11:04;;;;;;;13.18;4.25;;;;;;;19.97;44.33;101476.84;4974306;28;20038;-81
2022/08/17 01:13:39;;;;;;;13.45;3.83;;;;;;;20.02;44.40;101485.66;4974305;28;20031;-82
2022/08/17 01:16:14;;;;;;;6.65;3.13;;;;;;;20.03;44.30;101478.19;4972690;28;20038;-85
2022/08/17 01:18:42;;;;;;;11.40;4.22;;;;;;;20.02;44.13;101476.53;4974270;28;20041;-82
2022/08/17 01:21:25;;;;;;;9.20;3.28;;;;;;;19.98;44.54;101482.00;4974291;28;20027;-81
2022/08/17 01:23:51;;;;;;;9.13;4.00;;;;;;;20.05;44.22;101479.41;4973281;28;20545;-85
2022/08/17 01:26:17;;;;;;;10.20;3.40;;;;;;;20.02;44.30;101482.88;4974011;28;20070;-81
2022/08/17 01:28:43;;;;;;;10.85;3.42;;;;;;;20.10;44.38;101478.31;4972896;28;20062;-81
2022/08/17 01:31:09;;;;;;;10.95;3.45;;;;;;;20.15;44.18;101486.38;4972651;28;20119;-83
2022/08/17 01:33:35;;;;;;;6.68;2.67;;;;;;;20.12;44.37;101484.34;4974103;28;20070;-82
2022/08/17 01:36:02;;;;;;;12.18;4.25;;;;;;;20.16;44.33;101483.22;4988703;28;20058;-82
2022/08/17 01:38:30;;;;;;;10.13;3.22;;;;;;;19.98;44.90;101476.47;4972824;28;20065;-81
2022/08/17 01:41:01;;;;;;;5.97;3.20;;;;;;;20.03;44.84;101489.28;4973938;28;20034;-85
2022/08/17 01:43:55;;;;;;;7.78;3.33;;;;;;;20.02;44.97;101490.41;4974035;28;20030;-82
2022/08/17 01:46:25;;;;;;;13.73;5.15;;;;;;;20.04;44.90;101496.44;4970584;28;20039;-86
2022/08/17 01:48:52;;;;;;;12.75;3.63;;;;;;;20.09;44.79;101496.94;4972731;28;20026;-82
2022/08/17 01:51:19;;;;;;;9.77;3.42;;;;;;;20.02;45.29;101494.00;4973955;28;20053;-81
2022/08/17 01:53:53;;;;;;;6.63;4.15;;;;;;;20.16;44.64;101496.31;4988732;28;20613;-84
2022/08/17 01:56:22;;;;;;;10.45;4.38;;;;;;;20.09;44.86;101493.34;4973879;28;20425;-85
2022/08/17 01:58:48;;;;;;;8.25;3.45;;;;;;;20.64;43.54;101491.50;4972524;28;20019;-82
2022/08/17 02:01:16;;;;;;;9.02;3.15;;;;;;;20.85;43.11;101494.72;4972585;28;20084;-82
2022/08/17 02:03:42;;;;;;;6.80;2.72;;;;;;;20.90;42.90;101496.41;4992018;28;20023;-81
2022/08/17 02:06:08;;;;;;;7.53;3.35;;;;;;;20.86;43.10;101487.22;4977388;28;20406;-83
2022/08/17 02:08:34;;;;;;;9.55;3.58;;;;;;;20.90;42.87;101488.88;4977802;28;20026;-82
2022/08/17 02:11:04;;;;;;;8.93;3.05;;;;;;;20.34;44.31;101497.53;4976506;28;20031;-84
2022/08/17 02:13:32;;;;;;;7.47;2.97;;;;;;;20.00;45.32;101498.28;4992639;28;20030;-84
2022/08/17 02:15:59;;;;;;;8.18;3.38;;;;;;;20.15;44.89;101497.47;4975929;28;20043;-83
2022/08/17 02:18:25;;;;;;;5.63;2.85;;;;;;;20.10;44.89;101497.75;4976296;28;20030;-81
2022/08/17 02:20:51;;;;;;;8.45;3.08;;;;;;;20.06;45.02;101488.53;4976216;28;20027;-81
2022/08/17 02:23:18;;;;;;;7.63;3.08;;;;;;;20.09;45.03;101505.25;4976144;28;20027;-82
2022/08/17 02:25:48;;;;;;;11.82;3.75;;;;;;;20.67;43.71;101497.13;4975740;28;20026;-81
2022/08/17 02:28:15;;;;;;;6.28;3.35;;;;;;;20.79;43.40;101498.97;4976242;28;20591;-82
2022/08/17 02:30:41;;;;;;;11.07;3.22;;;;;;;20.87;43.17;101503.50;4975830;28;20081;-83
2022/08/17 02:33:07;;;;;;;10.13;3.67;;;;;;;20.88;43.03;101507.91;4992269;28;20027;-81
2022/08/17 02:35:34;;;;;;;8.60;3.58;;;;;;;20.79;43.32;101510.09;4991690;28;20030;-81
2022/08/17 02:38:00;;;;;;;11.48;4.75;;;;;;;20.80;43.31;101505.34;4988217;28;20045;-81
2022/08/17 02:40:26;;;;;;;6.88;3.33;;;;;;;20.73;43.64;101497.66;4975750;28;20432;-84
2022/08/17 02:42:52;;;;;;;14.65;3.58;;;;;;;20.86;43.25;101504.69;4991986;28;20301;-82
2022/08/17 02:45:21;;;;;;;11.52;4.35;;;;;;;20.97;43.00;101507.69;4974306;28;20110;-81
2022/08/17 02:47:47;;;;;;;7.13;3.10;;;;;;;21.03;42.82;101507.03;4974459;28;20496;-82
2022/08/17 02:50:16;;;;;;;7.53;2.83;;;;;;;21.00;42.85;101504.97;4975201;28;20031;-82
2022/08/17 02:52:44;;;;;;;8.60;3.17;;;;;;;21.01;42.71;101512.16;4976909;28;20517;-82
2022/08/17 02:55:25;;;;;;;6.78;3.22;;;;;;;21.10;42.64;101508.34;4976516;28;20031;-83
2022/08/17 02:57:51;;;;;;;8.40;3.75;;;;;;;21.10;42.34;101498.03;4956161;29;20031;-82
2022/08/17 03:00:22;;;;;;;8.75;3.10;;;;;;;21.10;42.63;101502.78;4956112;29;20367;-82
2022/08/17 03:02:48;;;;;;;9.95;3.50;;;;;;;21.11;42.60;101498.84;4956208;29;20467;-81
2022/08/17 03:05:17;;;;;;;9.30;3.38;;;;;;;21.15;42.60;101500.50;4956508;28;20031;-83
2022/08/17 03:07:43;;;;;;;8.27;3.40;;;;;;;21.21;42.52;101498.22;4975173;28;20413;-82
2022/08/17 03:10:10;;;;;;;8.57;3.40;;;;;;;21.11;42.86;101493.28;4975256;28;20035;-81
2022/08/17 03:12:38;;;;;;;12.25;3.60;;;;;;;20.98;43.18;101490.63;4975077;28;20031;-81
2022/08/17 03:15:07;;;;;;;6.65;3.63;;;;;;;20.95;43.39;101494.16;4976473;28;20093;-84
2022/08/17 03:17:33;;;;;;;7.45;3.30;;;;;;;21.13;43.07;101485.38;4974771;28;20050;-82
2022/08/17 03:19:59;;;;;;;8.93;3.40;;;;;;;21.16;43.40;101479.91;4975078;28;20048;-82
2022/08/17 03:22:28;;;;;;;13.45;3.67;;;;;;;21.16;43.48;101487.41;4974892;28;20022;-82
2022/08/17 03:24:54;;;;;;;4.72;2.45;;;;;;;21.14;43.74;101489.75;4975060;28;20027;-82
2022/08/17 03:27:20;;;;;;;9.15;3.55;;;;;;;21.16;43.41;101496.56;4974666;28;20394;-83
2022/08/17 03:29:46;;;;;;;11.90;3.10;;;;;;;21.31;43.43;101495.72;4975618;28;20047;-82
2022/08/17 03:32:14;;;;;;;8.35;3.05;;;;;;;21.37;43.37;101495.38;4974984;28;20034;-84
2022/08/17 03:34:41;;;;;;;9.27;3.33;;;;;;;21.40;43.13;101498.25;4974866;28;20457;-82
2022/08/17 03:37:06;;;;;;;6.25;3.03;;;;;;;21.34;43.28;101502.50;4974549;28;20027;-81
2022/08/17 03:39:32;;;;;;;7.18;3.10;;;;;;;21.23;43.44;101490.31;4974781;28;20049;-85
2022/08/17 03:42:07;;;;;;;11.63;4.00;;;;;;;21.09;44.33;101503.97;4974785;28;20034;-84
2022/08/17 03:44:34;;;;;;;8.20;3.10;;;;;;;21.10;44.10;101502.78;4974755;28;20031;-82
2022/08/17 03:58:01;;;;;;;8.27;2.95;;;;;;;21.23;44.00;101496.69;4956652;29;20054;-82
2022/08/17 04:00:27;;;;;;;7.90;2.78;;;;;;;21.25;43.85;101493.56;4955060;28;20474;-82
2022/08/17 04:02:53;;;;;;;9.93;3.10;;;;;;;21.24;43.89;101511.41;4956118;28;20055;-82
2022/08/17 04:05:19;;;;;;;9.63;3.33;;;;;;;21.23;43.90;101516.13;4971053;28;20094;-83
2022/08/17 04:07:45;;;;;;;8.52;3.70;;;;;;;21.01;44.48;101514.94;4974820;28;20041;-82
2022/08/17 04:10:11;;;;;;;14.60;3.75;;;;;;;21.12;44.12;101517.09;4974165;28;20121;-82
2022/08/17 04:12:53;;;;;;;11.02;3.92;;;;;;;21.16;44.26;101512.41;4975388;28;20081;-82
2022/08/17 04:15:20;;;;;;;7.88;3.75;;;;;;;21.19;43.78;101517.25;4975310;28;20030;-81
2022/08/17 04:17:46;;;;;;;11.95;3.15;;;;;;;21.20;44.25;101516.09;4990172;28;20035;-82
2022/08/17 04:20:12;;;;;;;7.95;3.35;;;;;;;21.12;44.58;101517.91;4974040;28;20122;-81
2022/08/17 04:22:38;;;;;;;13.13;3.53;;;;;;;21.26;44.22;101522.97;4974144;28;20401;-84
2022/08/17 04:25:17;;;;;;;12.00;3.45;;;;;;;21.16;44.64;101520.75;4974439;28;20113;-82
2022/08/17 04:27:42;;;;;;;8.57;3.10;;;;;;;;;;4973601;28;20041;-82
2022/08/17 04:30:08;;;;;;;8.18;2.85;;;;;;;21.22;44.30;101510.94;4973685;28;20364;-84
2022/08/17 04:32:51;;;;;;;11.55;3.47;;;;;;;21.29;44.79;101514.72;4974881;28;20037;-83
2022/08/17 04:35:23;;;;;;;10.80;3.72;;;;;;;21.39;44.13;101513.31;4973751;28;20023;-82
2022/08/17 04:37:49;;;;;;;8.57;3.20;;;;;;;21.36;44.40;101511.25;4973409;28;20042;-83
2022/08/17 04:43:10;;;;;;;8.05;3.22;;;;;;;21.29;44.55;101514.72;4975108;28;20101;-82
2022/08/17 04:45:41;;;;;;;5.55;3.38;;;;;;;21.39;44.31;101515.31;4973314;28;20038;-84
2022/08/17 04:48:06;;;;;;;9.07;3.67;;;;;;;21.25;44.66;101521.34;4974785;28;20023;-82
2022/08/17 04:50:38;;;;;;;11.32;4.10;;;;;;;21.33;44.64;101520.34;4974883;28;20034;-82
2022/08/17 04:53:04;;;;;;;8.55;3.58;;;;;;;21.39;44.47;101529.19;4974668;28;20432;-83
2022/08/17 04:55:30;;;;;;;16.63;4.22;;;;;;;21.30;44.67;101529.41;4974489;28;20035;-82
2022/08/17 04:57:56;;;;;;;10.43;3.85;;;;;;;21.37;44.79;101528.75;4973185;28;20401;-81
2022/08/17 05:00:24;;;;;;;9.85;3.63;;;;;;;21.30;44.77;101538.53;4974563;28;20105;-82
2022/08/17 05:02:51;;;;;;;10.18;3.60;;;;;;;21.25;44.95;101540.81;4973216;28;20132;-81
2022/08/17 05:05:20;;;;;;;9.60;3.83;;;;;;;21.19;45.23;101542.25;4989337;28;20118;-82
2022/08/17 05:07:46;;;;;;;10.68;3.53;;;;;;;21.21;45.35;101537.13;4974291;28;20046;-82
2022/08/17 05:10:12;;;;;;;13.05;4.18;;;;;;;21.23;45.38;101540.34;4973304;28;20159;-83
2022/08/17 05:12:38;;;;;;;8.77;2.90;;;;;;;21.09;45.46;101543.66;4973145;28;20482;-84
2022/08/17 05:15:04;;;;;;;10.73;3.25;;;;;;;21.12;45.46;101539.34;4973127;28;20023;-83
2022/08/17 05:17:29;;;;;;;10.20;3.75;;;;;;;21.12;45.41;101554.03;4972673;28;20027;-83
2022/08/17 05:19:55;;;;;;;10.77;3.80;;;;;;;21.12;45.26;101547.69;4973098;28;20094;-81
2022/08/17 05:22:20;;;;;;;12.73;3.83;;;;;;;21.19;45.21;101551.41;4974141;28;20042;-83
2022/08/17 05:24:46;;;;;;;17.50;4.32;;;;;;;21.09;45.62;101553.97;4972993;28;20031;-82
2022/08/17 05:27:11;;;;;;;10.75;4.15;;;;;;;21.14;45.53;101554.47;4972642;28;20524;-82
2022/08/17 05:29:38;;;;;;;10.45;3.65;;;;;;;21.20;45.24;101555.00;4972751;28;20050;-83
2022/08/17 05:32:08;;;;;;;12.15;3.50;;;;;;;21.13;45.49;101555.63;4972859;28;20026;-83
2022/08/17 05:34:35;;;;;;;16.92;3.60;;;;;;;21.15;45.31;101560.81;4974181;28;20474;-82
2022/08/17 05:37:01;;;;;;;9.80;3.40;;;;;;;21.14;45.26;101557.25;4972964;28;20394;-82
2022/08/17 05:39:27;;;;;;;13.43;3.83;;;;;;;21.25;45.12;101554.72;4972734;28;20105;-82
2022/08/17 05:41:52;;;;;;;12.60;3.40;;;;;;;21.21;45.02;101562.16;4973869;28;20483;-81
2022/08/17 05:44:18;;;;;;;8.23;3.53;;;;;;;21.08;45.54;101560.69;4972522;28;20118;-84
2022/08/17 05:46:49;;;;;;;11.98;4.35;;;;;;;21.14;45.27;101550.88;4971988;28;20070;-81
2022/08/17 05:49:21;;;;;;;9.43;3.20;;;;;;;21.10;45.14;101555.59;4973988;28;20031;-81
2022/08/17 05:52:17;;;;;;;11.48;3.72;;;;;;;21.09;45.20;101556.75;4972547;28;20470;-81
2022/08/17 05:55:19;;;;;;;11.63;4.10;;;;;;;21.11;45.27;101565.53;4972533;28;20030;-82
2022/08/17 05:58:30;;;;;;;14.98;4.07;;;;;;;21.00;45.57;101571.63;4968915;28;20049;-81
2022/08/17 06:01:18;;;;;;;10.15;4.10;;;;;;;20.87;45.92;101586.84;4968237;28;20046;-81
2022/08/17 06:04:15;;;;;;;10.48;3.85;;;;;;;20.87;45.98;101574.94;4970464;28;20049;-83
2022/08/17 06:07:04;;;;;;;10.55;3.40;;;;;;;20.91;45.89;101582.16;4972540;28;20567;-81
2022/08/17 06:09:40;;;;;;;10.63;3.93;;;;;;;21.03;45.68;101576.47;4972658;28;20097;-83
2022/08/17 06:12:27;;;;;;;11.23;3.78;;;;;;;21.10;45.35;101584.16;4973555;28;20281;-81
2022/08/17 06:15:24;;;;;;;13.38;3.83;;;;;;;21.01;45.63;101595.50;4972499;28;20070;-81
2022/08/17 06:17:55;;;;;;;12.45;3.05;;;;;;;21.19;45.31;101592.28;4972199;28;20031;-81
2022/08/17 06:20:22;;;;;;;10.70;3.10;;;;;;;21.19;45.27;101597.84;4972533;28;20031;-84
2022/08/17 06:22:52;;;;;;;10.95;3.88;;;;;;;20.95;45.77;101598.91;4973575;28;20026;-81
2022/08/17 06:25:22;;;;;;;13.95;3.40;;;;;;;21.13;45.39;101602.88;4972230;28;20026;-84
2022/08/17 06:27:56;;;;;;;;;;;;;;;21.11;45.46;101605.22;4973692;28;20045;-84
2022/08/17 06:30:28;;;;;;;9.18;3.20;;;;;;;21.09;45.32;101606.78;4972078;28;19922;-81
2022/08/17 06:33:04;;;;;;;7.60;3.47;;;;;;;21.10;45.56;101609.19;4988056;28;20033;-83
2022/08/17 06:36:28;;;;;;;10.65;3.53;;;;;;;21.19;45.23;101609.78;4972266;28;20030;-82
2022/08/17 06:39:18;;;;;;;7.25;3.63;;;;;;;21.18;45.47;101597.03;4951902;29;20194;-81
2022/08/17 06:41:54;;;;;;;10.23;3.83;;;;;;;21.24;45.15;101600.34;4935996;29;20039;-82
2022/08/17 06:44:28;;;;;;;8.82;3.25;;;;;;;21.33;44.90;101601.75;4969825;28;20572;-81
2022/08/17 06:47:08;;;;;;;8.52;3.60;;;;;;;21.37;45.04;101601.03;4971985;28;20442;-83
2022/08/17 06:49:50;;;;;;;12.50;4.10;;;;;;;21.29;45.78;101605.63;4976427;28;20077;-81
2022/08/17 06:52:35;;;;;;;10.38;3.20;;;;;;;21.33;45.58;101606.53;4976814;28;20035;-80
2022/08/17 06:55:10;;;;;;;14.30;4.95;;;;;;;21.32;45.60;101608.50;4975673;28;20074;-81
2022/08/17 06:57:40;;;;;;;11.45;3.88;;;;;;;21.23;45.84;101598.72;4975557;28;20084;-81
2022/08/17 07:00:19;;;;;;;11.95;4.60;;;;;;;21.35;45.73;101600.59;4976888;28;20026;-81
2022/08/17 07:02:56;;;;;;;9.88;3.40;;;;;;;21.40;45.46;101600.31;4975446;28;20082;-81
2022/08/17 07:05:31;;;;;;;18.08;5.88;;;;;;;21.36;45.83;101594.66;4976119;28;20377;-82
2022/08/17 07:08:05;;;;;;;7.45;3.65;;;;;;;21.35;45.88;101598.63;4975692;28;20561;-85
2022/08/17 07:10:39;;;;;;;11.18;3.15;;;;;;;21.38;45.96;101603.44;4976617;28;20031;-83
2022/08/17 07:13:32;;;;;;;8.25;3.00;;;;;;;21.42;46.28;101603.50;4975261;28;20398;-81
2022/08/17 07:16:35;;;;;;;12.85;5.82;;;;;;;21.23;46.99;101615.38;4975111;28;20065;-83
2022/08/17 07:19:01;;;;;;;9.82;3.00;;;;;;;21.43;46.34;101605.94;4974737;28;20039;-81
2022/08/17 07:21:45;;;;;;;7.63;3.65;;;;;;;21.46;46.43;101610.78;4975211;28;20034;-80
2022/08/17 07:24:42;;;;;;;6.75;2.75;;;;;;;21.56;46.85;101609.38;4975204;28;20029;-81
2022/08/17 07:27:38;;;;;;;8.35;2.80;;;;;;;21.64;46.85;101608.34;4974844;28;20474;-81
2022/08/17 07:30:15;;;;;;;8.63;3.05;;;;;;;21.73;46.48;101613.66;4973634;28;20494;-82
2022/08/17 07:33:08;;;;;;;6.45;2.58;;;;;;;21.76;46.96;101610.13;4974899;28;20482;-84
2022/08/17 07:35:38;;;;;;;7.32;2.95;;;;;;;21.91;46.32;101605.66;4975950;28;20085;-81
2022/08/17 07:38:07;;;;;;;8.05;3.40;;;;;;;21.93;46.46;101598.56;4976151;28;20031;-81
2022/08/17 07:40:56;;;;;;;9.93;2.85;;;;;;;21.76;47.55;101597.03;4976132;28;20033;-81
2022/08/17 07:43:24;;;;;;;8.15;2.83;;;;;;;21.93;46.81;101598.56;4972763;28;20045;-82
2022/08/17 07:48:54;;;;;;;14.32;3.53;;;;;;;22.12;46.53;101604.09;4976182;28;20086;-82
2022/08/17 07:51:30;;;;;;;9.85;4.03;;;;;;;22.25;46.54;101603.91;4974864;28;20031;-81
2022/08/17 07:54:01;;;;;;;7.07;3.17;;;;;;;22.31;46.47;101608.78;4975899;28;20081;-81
2022/08/17 07:56:30;;;;;;;8.82;2.85;;;;;;;22.40;46.24;101614.09;4974305;28;20060;-80
2022/08/17 07:59:10;;;;;;;11.73;2.85;;;;;;;22.32;46.71;101618.75;4975388;28;20062;-81
2022/08/17 08:01:36;;;;;;;8.05;2.92;;;;;;;22.60;46.02;101612.84;4974752;28;20054;-83
2022/08/17 08:04:33;;;;;;;6.63;3.22;;;;;;;22.58;46.35;101611.59;4975666;28;20034;-80
2022/08/17 08:07:00;;;;;;;8.18;3.30;;;;;;;22.71;45.88;101610.22;4982241;28;20081;-75
2022/08/17 08:09:29;;;;;;;11.40;3.40;;;;;;;22.77;45.82;101619.06;4982252;28;20054;-72
2022/08/17 08:11:55;;;;;;;9.02;3.50;;;;;;;22.82;46.11;101616.78;4984878;28;20109;-77
2022/08/17 08:14:32;;;;;;;5.95;2.85;;;;;;;22.99;45.65;101615.44;4981001;28;20114;-70
2022/08/17 08:17:06;;;;;;;6.30;3.40;;;;;;;23.03;45.74;101613.50;4974792;28;20051;-69
2022/08/17 08:19:32;;;;;;;8.95;2.60;;;;;;;23.06;45.54;101623.09;4975165;28;20027;-74
2022/08/17 08:22:11;;;;;;;7.50;2.95;;;;;;;23.17;45.22;101619.28;4979966;28;20035;-70
2022/08/17 08:24:46;;;;;;;9.32;2.85;;;;;;;23.32;44.75;101611.09;4975017;28;20031;-75
2022/08/17 08:27:43;;;;;;;6.15;2.85;;;;;;;23.17;45.69;101613.69;4974745;28;20438;-73
2022/08/17 08:30:13;;;;;;;6.45;2.70;;;;;;;23.18;45.50;101609.72;4974751;28;20093;-71
2022/08/17 08:33:09;;;;;;;7.75;3.20;;;;;;;23.30;45.20;101603.13;4974905;28;20049;-75
2022/08/17 08:35:54;;;;;;;5.72;2.95;;;;;;;23.36;44.95;101606.38;4974697;28;20432;-70
2022/08/17 08:38:43;;;;;;;9.13;3.55;;;;;;;23.39;45.31;101619.56;4974832;28;20106;-75
2022/08/17 08:41:27;;;;;;;6.57;3.58;;;;;;;23.52;45.05;101604.19;4974363;28;20045;-76
2022/08/17 08:44:19;;;;;;;6.63;2.70;;;;;;;23.78;44.81;101608.88;4973255;28;20041;-76
2022/08/17 08:46:59;;;;;;;8.40;3.33;;;;;;;23.84;44.33;101606.53;4974340;28;20383;-71
2022/08/17 08:49:37;;;;;;;6.03;2.67;;;;;;;23.88;44.58;101612.94;4974580;28;20030;-70
2022/08/17 08:52:13;;;;;;;8.60;3.40;;;;;;;23.98;44.26;101606.69;4973342;28;20397;-75
2022/08/17 08:55:13;;;;;;;9.02;2.95;;;;;;;24.05;44.08;101606.75;4974439;28;20393;-76
2022/08/17 08:58:08;;;;;;;8.82;2.63;;;;;;;24.10;44.14;101617.56;4974492;28;20085;-76
2022/08/17 09:00:39;;;;;;;10.70;3.08;;;;;;;24.16;43.93;101604.88;4972231;28;20181;-76
2022/08/17 09:03:18;;;;;;;7.20;3.10;;;;;;;24.18;44.09;101596.91;4974323;28;20433;-76
2022/08/17 09:05:54;;;;;;;9.57;3.00;;;;;;;24.08;44.15;101606.78;4973870;28;20391;-70
2022/08/17 09:08:27;;;;;;;5.63;3.13;;;;;;;24.24;44.00;101603.72;4974268;28;20026;-73
2022/08/17 09:11:02;;;;;;;8.32;2.58;;;;;;;24.31;44.15;101609.38;4973709;28;20031;-72
2022/08/17 09:13:39;;;;;;;22.95;4.60;;;;;;;24.16;44.51;101613.22;4964362;28;21599;-71
2022/08/17 09:16:19;;;;;;;7.22;3.80;;;;;;;24.43;43.77;101599.16;4973869;28;20039;-71
2022/08/17 09:19:02;;;;;;;10.90;3.00;;;;;;;24.29;44.37;101602.59;4974236;28;20029;-72
2022/08/17 09:21:53;;;;;;;7.32;3.05;;;;;;;24.38;43.90;101607.88;4955536;28;20027;-71
2022/08/17 09:24:40;;;;;;;8.25;3.08;;;;;;;24.28;43.92;101626.91;4953576;29;20079;-71
2022/08/17 09:27:18;;;;;;;8.30;3.40;;;;;;;24.38;43.96;101624.63;4953507;29;20027;-72
2022/08/17 09:30:08;;;;;;;10.00;3.03;;;;;;;24.49;43.38;101623.53;4953290;29;20050;-71
2022/08/17 09:32:39;;;;;;;7.18;3.35;;;;;;;24.59;43.68;101617.22;4964534;28;20029;-71
2022/08/17 09:35:13;;;;;;;10.18;2.38;;;;;;;24.66;43.79;101607.28;4973910;28;20381;-78
2022/08/17 09:37:55;;;;;;;6.43;3.50;;;;;;;24.66;43.90;101608.09;4981197;28;20027;-73
2022/08/17 09:40:31;;;;;;;14.63;4.13;;;;;;;24.59;43.53;101614.44;4983536;28;20400;-73
2022/08/17 09:43:11;;;;;;;14.15;4.20;;;;;;;24.62;43.74;101624.03;4982093;28;20396;-78
2022/08/17 09:45:49;;;;;;;8.95;2.95;;;;;;;24.58;44.04;101629.59;4978188;28;20023;-73
2022/08/17 09:49:08;;;;;;;9.02;3.33;;;;;;;24.58;43.82;101631.59;4993233;28;20118;-77
2022/08/17 09:51:39;;;;;;;13.20;2.90;;;;;;;24.70;44.08;101631.25;4975676;28;20039;-72
2022/08/17 09:54:18;;;;;;;10.57;3.38;;;;;;;24.78;44.46;101638.50;4975157;28;20038;-77
2022/08/17 09:57:04;;;;;;;7.20;2.58;;;;;;;24.75;44.58;101641.28;4978403;28;20026;-71
2022/08/17 10:00:01;;;;;;;16.65;3.35;;;;;;;24.79;44.47;101639.34;4975266;28;20418;-72
2022/08/17 10:02:53;;;;;;;8.13;3.25;;;;;;;24.75;44.58;101647.69;4975572;28;20179;-71
2022/08/17 10:05:46;;;;;;;5.88;2.60;;;;;;;24.65;45.71;101658.78;4977935;28;20033;-77
2022/08/17 10:08:41;;;;;;;6.05;2.55;;;;;;;24.67;46.32;101662.00;4976813;28;20027;-76
2022/08/17 10:12:14;;;;;;;9.40;3.75;;;;;;;24.72;45.89;101650.47;4978316;28;20092;-71
2022/08/17 10:14:30;;;;;;;7.13;2.42;;;;;;;24.61;46.73;101644.78;4978001;28;20038;-72
2022/08/17 10:17:41;;;;;;;8.70;2.95;;;;;;;24.84;46.92;101658.50;4978859;28;20034;-71
2022/08/17 10:20:19;;;;;;;8.95;3.17;;;;;;;24.79;47.11;101664.50;4975427;28;20027;-72
2022/08/17 10:28:59;;;;;;;11.60;3.72;;;;;;;25.00;47.53;101661.81;4991894;28;20046;-73
2022/08/17 10:31:34;;;;;;;9.88;2.95;;;;;;;24.99;47.82;101659.41;4983214;28;20487;-72
2022/08/17 10:34:06;;;;;;;7.85;2.47;;;;;;;25.00;47.48;101652.63;4979342;28;20033;-77
2022/08/17 10:36:47;;;;;;;3.58;1.48;;;;;;;24.98;47.45;101655.03;4978295;28;20047;-72
2022/08/17 10:39:27;;;;;;;2.50;1.42;;;;;;;24.95;48.00;101656.59;4977429;28;20035;-74
2022/08/17 10:41:59;;;;;;;3.30;1.92;;;;;;;24.99;47.82;101654.63;4980046;28;20038;-77
2022/08/17 10:44:49;;;;;;;3.17;1.85;;;;;;;24.87;48.65;101654.97;4981654;28;20493;-79
2022/08/17 10:47:17;;;;;;;9.82;3.08;;;;;;;25.00;48.08;101655.41;4977069;28;20031;-78
2022/08/17 10:49:54;;;;;;;7.28;2.42;;;;;;;25.15;47.87;101645.94;4981810;28;20101;-72
2022/08/17 10:52:29;;;;;;;4.75;2.20;;;;;;;25.18;47.68;101650.78;4982281;28;20034;-71
2022/08/17 10:54:57;;;;;;;7.72;3.03;;;;;;;25.14;48.22;101647.16;4980132;28;20023;-72
2022/08/17 10:57:25;;;;;;;6.20;2.67;;;;;;;25.07;48.44;101645.13;4980395;28;20040;-72
2022/08/17 10:59:52;;;;;;;4.47;2.45;;;;;;;25.08;47.97;101640.31;4976616;28;20117;-72
2022/08/17 11:02:39;;;;;;;3.78;1.90;;;;;;;24.98;48.64;101647.44;4980859;28;20026;-74
2022/08/17 11:05:37;;;;;;;5.43;1.63;;;;;;;24.92;48.76;101660.97;4980114;28;20413;-71
2022/08/17 11:08:14;;;;;;;4.00;1.48;;;;;;;24.98;48.55;101663.41;4979327;28;20416;-72
2022/08/17 11:10:46;;;;;;;1.75;1.20;;;;;;;25.09;48.30;101655.91;4980667;28;20034;-71
2022/08/17 11:13:34;;;;;;;2.33;1.30;;;;;;;25.09;48.22;101651.13;4977977;28;20434;-77
2022/08/17 11:15:59;;;;;;;3.67;2.28;;;;;;;25.16;48.27;101653.16;4979494;28;20037;-72
2022/08/17 11:18:39;;;;;;;2.80;1.52;;;;;;;25.16;48.64;101653.16;4995988;28;20036;-77
2022/08/17 11:21:45;;;;;;;3.78;1.65;;;;;;;25.19;49.16;101652.38;4981184;28;20027;-76
2022/08/17 11:24:36;;;;;;;1.48;1.05;;;;;;;25.25;48.50;101655.63;4983005;28;20026;-76
2022/08/17 11:27:25;;;;;;;2.72;1.50;;;;;;;25.37;48.15;101650.47;4979525;28;20058;-77
2022/08/17 11:29:56;;;;;;;2.78;1.42;;;;;;;25.45;47.67;101649.31;4978516;28;20046;-75
2022/08/17 11:32:48;;;;;;;2.20;1.30;;;;;;;25.45;47.19;101654.91;4996170;28;20030;-77
2022/08/17 11:35:19;;;;;;;2.65;0.93;;;;;;;25.51;47.40;101658.13;4983890;28;20107;-72
2022/08/17 11:38:04;;;;;;;4.45;1.30;;;;;;;25.41;47.43;101653.28;4980983;28;20366;-74
2022/08/17 11:40:45;;;;;;;4.82;1.52;;;;;;;25.51;47.16;101662.91;4979338;28;20089;-73
2022/08/17 11:43:29;;;;;;;2.47;1.35;;;;;;;25.44;47.51;101658.88;4980451;28;20030;-75
2022/08/17 11:46:13;;;;;;;2.28;1.10;;;;;;;25.47;47.94;101665.72;4979194;28;20042;-71
2022/08/17 11:52:00;;;;;;;1.17;0.80;;;;;;;25.64;47.28;101664.97;4980275;28;20607;-72
2022/08/17 11:54:29;;;;;;;4.53;0.98;;;;;;;25.84;47.14;101673.84;4980441;28;20061;-77
2022/08/17 11:56:57;;;;;;;1.67;0.90;;;;;;;26.02;47.23;101664.72;4981878;28;20536;-71
2022/08/17 11:59:31;;;;;;;1.38;0.80;;;;;;;26.03;46.76;101671.94;4979932;28;20030;-72
2022/08/17 12:01:59;;;;;;;0.98;0.90;;;;;;;26.16;46.72;101667.56;4979632;28;20037;-71
2022/08/17 12:04:28;;;;;;;2.28;1.08;;;;;;;26.26;46.23;101663.97;4980343;28;20019;-72
2022/08/17 12:07:09;;;;;;;1.25;0.98;;;;;;;26.17;46.24;101658.75;4979820;28;20045;-71
2022/08/17 12:09:40;;;;;;;2.00;1.30;;;;;;;26.19;45.94;101661.94;4993073;28;20022;-72
2022/08/17 12:12:11;;;;;;;3.45;1.88;;;;;;;26.10;45.85;101657.94;4983764;28;20060;-71
2022/08/17 12:14:39;;;;;;;2.53;1.30;;;;;;;26.06;45.92;101665.53;4984004;28;20560;-71
2022/08/17 12:17:11;;;;;;;5.82;2.20;;;;;;;26.06;46.26;101659.91;4983045;28;20082;-71
2022/08/17 12:19:39;;;;;;;6.40;1.50;;;;;;;26.14;45.96;101658.72;4982180;28;20485;-71
2022/08/17 12:22:21;;;;;;;4.30;1.70;;;;;;;26.12;46.14;101656.34;4982827;28;20125;-71
2022/08/17 12:24:55;;;;;;;5.22;1.77;;;;;;;26.04;46.74;101651.13;4980091;28;20569;-70